Private Wetterstation Wechselburg
Wetterdaten: Sonntag, 12.12.2021
Datum Zeit Temp. +2m Bodentemp. Temp.+5cm Temp. Wind Windchill X Diff Temp. Feuchte +2m Feuchte +5cm Luftdruck Regen Wind Richtung Richtung Sonnenschein Taupunkt Windchill Windben
12.12.2021 00:00 -2,1 C 5,3 C -2,4 C -2,1 C -2,2 C 0,0 C 89 % 94 % 1024,1 hPa 0,0 l/m 0,0 km/h (0 Bft) O-SO 112 0 min -3,7 C -2,2 C 0,0 km/h (0 Bft)
12.12.2021 00:05 -2,1 C 5,3 C -2,4 C -2,2 C -2,3 C 0,0 C 89 % 94 % 1024,1 hPa 0,0 l/m 0,0 km/h (0 Bft) W-SW 247 0 min -3,7 C -2,3 C 0,0 km/h (0 Bft)
12.12.2021 00:10 -2,2 C 5,3 C -2,4 C -2,2 C -2,3 C 0,0 C 89 % 94 % 1024,7 hPa 0,0 l/m 0,2 km/h (0 Bft) O-NO 67 0 min -3,8 C -2,3 C 0,0 km/h (0 Bft)
12.12.2021 00:15 -2,2 C 5,3 C -2,5 C -2,2 C -2,3 C 0,0 C 89 % 94 % 1024,7 hPa 0,0 l/m 0,2 km/h (0 Bft) S 180 0 min -3,8 C -2,3 C 0,0 km/h (0 Bft)
12.12.2021 00:20 -2,2 C 5,3 C -2,5 C -2,3 C -2,4 C 0,0 C 89 % 94 % 1024,7 hPa 0,0 l/m 0,0 km/h (0 Bft) S 180 0 min -3,8 C -2,4 C 0,0 km/h (0 Bft)
12.12.2021 00:25 -2,2 C 5,3 C -2,6 C -2,3 C -2,5 C 0,0 C 89 % 94 % 1024,7 hPa 0,0 l/m 0,0 km/h (0 Bft) S-SO 157 0 min -3,8 C -2,5 C 0,0 km/h (0 Bft)
12.12.2021 00:30 -2,1 C 5,3 C -2,7 C -2,2 C -2,5 C 0,0 C 89 % 94 % 1024,6 hPa 0,0 l/m 0,0 km/h (0 Bft) S 180 0 min -3,7 C -2,5 C 0,0 km/h (0 Bft)
12.12.2021 00:35 -2,3 C 5,3 C -2,8 C -2,4 C -2,6 C 0,0 C 89 % 94 % 1024,6 hPa 0,0 l/m 0,0 km/h (0 Bft) S 180 0 min -3,9 C -2,6 C 0,0 km/h (0 Bft)
12.12.2021 00:40 -2,3 C 5,3 C -2,9 C -2,5 C -2,9 C 0,0 C 89 % 95 % 1024,6 hPa 0,0 l/m 0,0 km/h (0 Bft) S 180 0 min -3,9 C -2,9 C 0,0 km/h (0 Bft)
12.12.2021 00:45 -2,5 C 5,3 C -3,0 C -2,7 C -3,1 C 0,0 C 89 % 95 % 1024,6 hPa 0,0 l/m 0,0 km/h (0 Bft) S 180 0 min -4,1 C -3,1 C 0,0 km/h (0 Bft)
12.12.2021 00:50 -2,5 C 5,2 C -3,1 C -2,7 C -3,2 C 0,0 C 89 % 94 % 1024,7 hPa 0,0 l/m 0,0 km/h (0 Bft) S 180 0 min -4,1 C -3,2 C 0,0 km/h (0 Bft)
12.12.2021 00:55 -2,5 C 5,3 C -3,3 C -2,8 C -3,3 C 0,0 C 89 % 94 % 1024,7 hPa 0,0 l/m 0,0 km/h (0 Bft) O-NO 67 0 min -4,1 C -3,3 C 0,0 km/h (0 Bft)
12.12.2021 01:00 -2,5 C 5,3 C -3,3 C -2,7 C -3,2 C 0,0 C 89 % 94 % 1024,7 hPa 0,0 l/m 0,0 km/h (0 Bft) SO 135 0 min -4,1 C -3,2 C 0,0 km/h (0 Bft)
12.12.2021 01:05 -2,5 C 5,3 C -3,1 C -2,7 C -3,1 C 0,0 C 89 % 94 % 1024,7 hPa 0,0 l/m 0,0 km/h (0 Bft) S 180 0 min -4,1 C -3,1 C 3,5 km/h (1 Bft)
12.12.2021 01:10 -2,5 C 5,3 C -3,0 C -2,6 C -2,9 C 0,0 C 89 % 95 % 1025,1 hPa 0,0 l/m 0,3 km/h (0 Bft) S-SW 202 0 min -4,1 C -2,9 C 0,0 km/h (0 Bft)
12.12.2021 01:15 -2,5 C 5,3 C -3,1 C -2,6 C -2,8 C 0,0 C 89 % 94 % 1025,1 hPa 0,0 l/m 0,3 km/h (0 Bft) SO 135 0 min -4,1 C -2,8 C 0,0 km/h (0 Bft)
12.12.2021 01:20 -2,5 C 5,3 C -3,1 C -2,6 C -2,7 C 0,0 C 89 % 95 % 1025,1 hPa 0,0 l/m 0,0 km/h (0 Bft) O 90 0 min -4,1 C -2,7 C 0,0 km/h (0 Bft)
12.12.2021 01:25 -2,5 C 5,2 C -2,8 C -2,5 C -2,6 C 0,0 C 89 % 95 % 1025,1 hPa 0,0 l/m 0,3 km/h (0 Bft) S 180 0 min -4,1 C -2,6 C 2,9 km/h (1 Bft)
12.12.2021 01:30 -2,3 C 5,2 C -2,6 C -2,4 C -2,5 C 0,0 C 89 % 95 % 1025,1 hPa 0,0 l/m 1,3 km/h (1 Bft) S-SW 202 0 min -3,9 C -2,5 C 1,8 km/h (1 Bft)
12.12.2021 01:35 -2,4 C 5,2 C -2,7 C -2,4 C -2,4 C 0,0 C 89 % 95 % 1025,1 hPa 0,0 l/m 1,3 km/h (1 Bft) SW 225 0 min -4,0 C -2,4 C 5,1 km/h (1 Bft)
12.12.2021 01:40 -2,4 C 5,2 C -2,6 C -2,4 C -2,5 C 0,0 C 89 % 94 % 1025,1 hPa 0,0 l/m 0,3 km/h (0 Bft) SO 135 0 min -4,0 C -2,5 C 1,8 km/h (1 Bft)
12.12.2021 01:45 -2,4 C 5,2 C -2,6 C -2,4 C -2,5 C 0,0 C 89 % 95 % 1025,1 hPa 0,0 l/m 0,6 km/h (0 Bft) S-SO 157 0 min -4,0 C -2,5 C 0,0 km/h (0 Bft)
12.12.2021 01:50 -2,3 C 5,2 C -2,5 C -2,3 C -2,4 C 0,0 C 89 % 94 % 1025,1 hPa 0,0 l/m 1,1 km/h (1 Bft) S 180 0 min -3,9 C -2,4 C 0,0 km/h (0 Bft)
12.12.2021 01:55 -2,3 C 5,2 C -2,6 C -2,4 C -2,5 C 0,0 C 89 % 95 % 1025,1 hPa 0,0 l/m 0,6 km/h (0 Bft) SO 135 0 min -3,9 C -2,5 C 0,0 km/h (0 Bft)
12.12.2021 02:00 -2,3 C 5,2 C -2,7 C -2,4 C -2,5 C 0,0 C 89 % 95 % 1025,1 hPa 0,0 l/m 0,3 km/h (0 Bft) S-SW 202 0 min -3,9 C -2,5 C 2,3 km/h (1 Bft)
12.12.2021 02:05 -2,3 C 5,2 C -2,9 C -2,4 C -2,6 C 0,0 C 89 % 95 % 1025,1 hPa 0,0 l/m 0,0 km/h (0 Bft) O-SO 112 0 min -3,9 C -2,6 C 0,0 km/h (0 Bft)
12.12.2021 02:10 -2,4 C 5,2 C -3,0 C -2,5 C -2,8 C 0,0 C 89 % 95 % 1025,1 hPa 0,0 l/m 0,3 km/h (0 Bft) O-NO 67 0 min -4,0 C -2,8 C 1,9 km/h (1 Bft)
12.12.2021 02:15 -2,3 C 5,2 C -2,7 C -2,4 C -2,5 C 0,0 C 89 % 95 % 1025,1 hPa 0,0 l/m 1,1 km/h (1 Bft) S-SW 202 0 min -3,9 C -2,5 C 2,3 km/h (1 Bft)
12.12.2021 02:20 -2,3 C 5,2 C -2,7 C -2,4 C -2,5 C 0,0 C 89 % 94 % 1025,1 hPa 0,0 l/m 1,3 km/h (1 Bft) SW 225 0 min -3,9 C -2,5 C 0,0 km/h (0 Bft)
12.12.2021 02:25 -2,4 C 5,2 C -2,9 C -2,5 C -2,7 C 0,0 C 89 % 95 % 1025,1 hPa 0,0 l/m 0,3 km/h (0 Bft) SW 225 0 min -4,0 C -2,7 C 0,0 km/h (0 Bft)
12.12.2021 02:30 -2,5 C 5,2 C -3,0 C -2,6 C -2,9 C 0,0 C 89 % 95 % 1025,9 hPa 0,0 l/m 0,0 km/h (0 Bft) SW 225 0 min -4,1 C -2,9 C 0,0 km/h (0 Bft)
12.12.2021 02:35 -2,5 C 5,2 C -3,2 C -2,7 C -3,2 C 0,0 C 89 % 94 % 1025,9 hPa 0,0 l/m 0,0 km/h (0 Bft) SW 225 0 min -4,1 C -3,2 C 0,0 km/h (0 Bft)
12.12.2021 02:40 -2,5 C 5,2 C -3,2 C -2,8 C -3,4 C 0,0 C 89 % 94 % 1025,9 hPa 0,0 l/m 0,0 km/h (0 Bft) SW 225 0 min -4,1 C -3,4 C 0,0 km/h (0 Bft)
12.12.2021 02:45 -2,7 C 5,2 C -2,9 C -2,8 C -3,1 C 0,0 C 89 % 95 % 1025,9 hPa 0,0 l/m 0,0 km/h (0 Bft) SW 225 0 min -4,3 C -3,1 C 0,0 km/h (0 Bft)
12.12.2021 02:50 -2,7 C 5,2 C -2,9 C -2,7 C -2,8 C 0,0 C 89 % 95 % 1025,7 hPa 0,0 l/m 0,0 km/h (0 Bft) SW 225 0 min -4,3 C -2,8 C 0,0 km/h (0 Bft)
12.12.2021 02:55 -2,7 C 5,2 C -2,8 C -2,5 C -2,5 C 0,2 C 89 % 95 % 1025,7 hPa 0,0 l/m 0,2 km/h (0 Bft) S 180 0 min -4,3 C -2,5 C 1,6 km/h (1 Bft)
12.12.2021 03:00 -2,5 C 5,2 C -2,6 C -2,2 C -2,2 C 0,3 C 89 % 95 % 1025,7 hPa 0,0 l/m 0,2 km/h (0 Bft) O-NO 67 0 min -4,1 C -2,2 C 0,0 km/h (0 Bft)
12.12.2021 03:05 -2,5 C 5,2 C -2,4 C -2,1 C -2,1 C 0,4 C 89 % 94 % 1025,7 hPa 0,0 l/m 0,5 km/h (0 Bft) S 180 0 min -4,1 C -2,1 C 3,1 km/h (1 Bft)
12.12.2021 03:10 -2,3 C 5,2 C -2,2 C -1,9 C -1,9 C 0,4 C 89 % 94 % 1025,8 hPa 0,0 l/m 1,6 km/h (1 Bft) SW 225 0 min -3,9 C -1,9 C 7,1 km/h (2 Bft)
12.12.2021 03:15 -2,1 C 5,2 C -1,9 C -2,3 C -2,7 C 0,0 C 89 % 95 % 1025,8 hPa 0,0 l/m 3,5 km/h (1 Bft) S 180 0 min -3,7 C -2,7 C 4,3 km/h (1 Bft)
12.12.2021 03:20 -2,1 C 5,2 C -1,8 C -2,2 C -2,3 C 0,0 C 89 % 95 % 1025,8 hPa 0,0 l/m 3,1 km/h (1 Bft) S 180 0 min -3,7 C -2,3 C 3,5 km/h (1 Bft)
12.12.2021 03:25 -2,0 C 5,2 C -1,6 C -1,8 C -1,8 C 0,2 C 89 % 95 % 1025,8 hPa 0,0 l/m 2,7 km/h (1 Bft) SW 225 0 min -3,6 C -1,8 C 5,3 km/h (1 Bft)
12.12.2021 03:30 -1,9 C 5,2 C -1,5 C -2,0 C -2,1 C 0,0 C 89 % 95 % 1025,5 hPa 0,0 l/m 3,4 km/h (1 Bft) S-SW 202 0 min -3,5 C -2,1 C 4,2 km/h (1 Bft)
12.12.2021 03:35 -1,7 C 5,2 C -1,3 C -1,8 C -2,0 C 0,0 C 89 % 95 % 1025,5 hPa 0,0 l/m 3,5 km/h (1 Bft) S-SW 202 0 min -3,3 C -2,0 C 7,6 km/h (2 Bft)
12.12.2021 03:40 -1,6 C 5,2 C -1,3 C -1,7 C -1,9 C 0,0 C 89 % 95 % 1025,5 hPa 0,0 l/m 3,4 km/h (1 Bft) S-SO 157 0 min -3,2 C -1,9 C 4,8 km/h (1 Bft)
12.12.2021 03:45 -1,5 C 5,2 C -1,2 C -1,7 C -2,2 C 0,0 C 89 % 95 % 1025,5 hPa 0,0 l/m 4,0 km/h (1 Bft) S 180 0 min -3,1 C -2,2 C 4,8 km/h (1 Bft)
12.12.2021 03:50 -1,3 C 5,2 C -1,1 C -1,6 C -2,2 C 0,0 C 89 % 95 % 1025,4 hPa 0,0 l/m 4,2 km/h (1 Bft) S-SO 157 0 min -2,9 C -2,2 C 4,5 km/h (1 Bft)
12.12.2021 03:55 -1,3 C 5,2 C -1,0 C -1,4 C -1,6 C 0,0 C 89 % 95 % 1025,4 hPa 0,0 l/m 3,2 km/h (1 Bft) S-SO 157 0 min -2,9 C -1,6 C 3,7 km/h (1 Bft)
12.12.2021 04:00 -1,1 C 5,2 C -1,0 C -1,1 C -1,2 C 0,0 C 89 % 95 % 1025,4 hPa 0,0 l/m 2,9 km/h (1 Bft) S 180 0 min -2,7 C -1,2 C 4,0 km/h (1 Bft)
12.12.2021 04:05 -1,1 C 5,2 C -0,9 C -0,8 C -0,8 C 0,3 C 89 % 95 % 1025,4 hPa 0,0 l/m 2,4 km/h (1 Bft) S 180 0 min -2,7 C -0,8 C 0,0 km/h (0 Bft)
12.12.2021 04:10 -1,1 C 5,2 C -0,9 C -0,7 C -0,7 C 0,4 C 89 % 95 % 1025,7 hPa 0,0 l/m 1,4 km/h (1 Bft) S 180 0 min -2,7 C -0,7 C 0,0 km/h (0 Bft)
12.12.2021 04:15 -0,9 C 5,2 C -0,8 C -0,7 C -0,7 C 0,2 C 89 % 95 % 1025,7 hPa 0,0 l/m 2,1 km/h (1 Bft) S-SO 157 0 min -2,5 C -0,7 C 6,3 km/h (2 Bft)
12.12.2021 04:20 -0,9 C 5,2 C -0,7 C -1,1 C -1,4 C 0,0 C 89 % 95 % 1025,7 hPa 0,0 l/m 3,4 km/h (1 Bft) S 180 0 min -2,5 C -1,4 C 4,0 km/h (1 Bft)
12.12.2021 04:25 -0,9 C 5,2 C -0,7 C -1,1 C -1,4 C 0,0 C 89 % 95 % 1025,7 hPa 0,0 l/m 3,4 km/h (1 Bft) SW 225 0 min -2,5 C -1,4 C 1,8 km/h (1 Bft)
12.12.2021 04:30 -0,8 C 5,2 C -0,7 C -0,9 C -1,1 C 0,0 C 89 % 95 % 1025,7 hPa 0,0 l/m 2,9 km/h (1 Bft) S 180 0 min -2,4 C -1,1 C 5,6 km/h (1 Bft)
12.12.2021 04:35 -0,7 C 5,2 C -0,6 C -0,8 C -0,9 C 0,0 C 89 % 95 % 1025,7 hPa 0,0 l/m 2,7 km/h (1 Bft) S 180 0 min -2,3 C -0,9 C 8,0 km/h (2 Bft)
12.12.2021 04:40 -0,7 C 5,2 C -0,6 C -0,8 C -1,1 C 0,0 C 89 % 95 % 1025,7 hPa 0,0 l/m 2,9 km/h (1 Bft) S-SW 202 0 min -2,3 C -1,1 C 4,8 km/h (1 Bft)
12.12.2021 04:45 -0,5 C 5,2 C -0,5 C -0,7 C -1,2 C 0,0 C 89 % 95 % 1025,7 hPa 0,0 l/m 3,5 km/h (1 Bft) S-SO 157 0 min -2,1 C -1,2 C 3,1 km/h (1 Bft)
12.12.2021 04:50 -0,5 C 5,2 C -0,5 C -0,7 C -1,1 C 0,0 C 89 % 95 % 1025,8 hPa 0,0 l/m 3,4 km/h (1 Bft) S 180 0 min -2,1 C -1,1 C 2,3 km/h (1 Bft)
12.12.2021 04:55 -0,4 C 5,2 C -0,5 C -0,6 C -1,0 C 0,0 C 89 % 95 % 1025,8 hPa 0,0 l/m 3,4 km/h (1 Bft) S-SO 157 0 min -2,0 C -1,0 C 3,7 km/h (1 Bft)
12.12.2021 05:00 -0,3 C 5,2 C -0,4 C -0,6 C -1,2 C 0,0 C 89 % 95 % 1025,8 hPa 0,0 l/m 3,7 km/h (1 Bft) S 180 0 min -1,9 C -1,2 C 5,0 km/h (1 Bft)
12.12.2021 05:05 -0,1 C 5,2 C -0,4 C -0,5 C -1,2 C 0,0 C 89 % 95 % 1025,8 hPa 0,0 l/m 3,7 km/h (1 Bft) W-SW 247 0 min -1,7 C -1,2 C 3,4 km/h (1 Bft)
12.12.2021 05:10 -0,2 C 5,2 C -0,4 C -0,5 C -1,2 C 0,0 C 89 % 95 % 1026,1 hPa 0,0 l/m 3,7 km/h (1 Bft) S 180 0 min -1,8 C -1,2 C 4,2 km/h (1 Bft)
12.12.2021 05:15 -0,1 C 5,2 C -0,4 C -0,3 C -0,7 C 0,0 C 89 % 95 % 1026,1 hPa 0,0 l/m 2,9 km/h (1 Bft) S 180 0 min -1,7 C -0,7 C 3,4 km/h (1 Bft)
12.12.2021 05:20 -0,1 C 5,2 C -0,4 C -0,2 C -0,4 C 0,0 C 89 % 95 % 1026,1 hPa 0,0 l/m 2,6 km/h (1 Bft) S 180 0 min -1,7 C -0,4 C 1,9 km/h (1 Bft)
12.12.2021 05:25 0,0 C 5,2 C -0,4 C -0,1 C -0,4 C 0,0 C 89 % 95 % 1026,1 hPa 0,0 l/m 2,6 km/h (1 Bft) S 180 0 min -1,6 C -0,4 C 4,5 km/h (1 Bft)
12.12.2021 05:30 0,0 C 5,2 C -0,4 C -0,1 C -0,4 C 0,0 C 89 % 95 % 1026,5 hPa 0,0 l/m 2,6 km/h (1 Bft) SO 135 0 min -1,6 C -0,4 C 4,2 km/h (1 Bft)
12.12.2021 05:35 0,1 C 5,2 C -0,4 C -0,1 C -0,4 C 0,0 C 89 % 95 % 1026,5 hPa 0,0 l/m 2,6 km/h (1 Bft) S 180 0 min -1,5 C -0,4 C 4,2 km/h (1 Bft)
12.12.2021 05:40 0,2 C 5,2 C -0,4 C -0,1 C -0,7 C 0,0 C 89 % 95 % 1026,5 hPa 0,0 l/m 2,9 km/h (1 Bft) S-SO 157 0 min -1,4 C -0,7 C 4,0 km/h (1 Bft)
12.12.2021 05:45 0,3 C 5,2 C -0,5 C 0,1 C -0,4 C 0,0 C 89 % 95 % 1026,5 hPa 0,0 l/m 2,4 km/h (1 Bft) S-SO 157 0 min -1,3 C -0,4 C 3,4 km/h (1 Bft)
12.12.2021 05:50 0,3 C 5,2 C -0,5 C 0,1 C -0,4 C 0,0 C 89 % 95 % 1026,2 hPa 0,0 l/m 2,3 km/h (1 Bft) S 180 0 min -1,3 C -0,4 C 2,3 km/h (1 Bft)
12.12.2021 05:55 0,3 C 5,2 C -0,5 C 0,0 C -0,5 C 0,0 C 89 % 95 % 1026,2 hPa 0,0 l/m 2,1 km/h (1 Bft) SO 135 0 min -1,3 C -0,5 C 2,1 km/h (1 Bft)
12.12.2021 06:00 0,2 C 5,2 C -0,6 C 0,0 C -0,5 C 0,0 C 89 % 95 % 1026,2 hPa 0,0 l/m 1,6 km/h (1 Bft) S-SO 157 0 min -1,4 C -0,5 C 2,6 km/h (1 Bft)
12.12.2021 06:05 0,3 C 5,2 C -0,8 C 0,0 C -0,6 C 0,0 C 89 % 95 % 1026,2 hPa 0,0 l/m 1,8 km/h (1 Bft) W-NW 292 0 min -1,3 C -0,6 C 1,8 km/h (1 Bft)
12.12.2021 06:10 0,3 C 5,2 C -0,9 C -0,1 C -0,8 C 0,0 C 89 % 95 % 1026,2 hPa 0,0 l/m 1,3 km/h (1 Bft) S-SO 157 0 min -1,3 C -0,8 C 0,0 km/h (0 Bft)
12.12.2021 06:15 0,3 C 5,2 C -0,9 C -0,2 C -1,1 C 0,0 C 89 % 95 % 1026,2 hPa 0,0 l/m 0,6 km/h (0 Bft) S 180 0 min -1,3 C -1,1 C 2,6 km/h (1 Bft)
12.12.2021 06:20 0,3 C 5,2 C -0,9 C -0,1 C -1,0 C 0,0 C 89 % 95 % 1026,2 hPa 0,0 l/m 1,0 km/h (0 Bft) S 180 0 min -1,3 C -1,0 C 0,0 km/h (0 Bft)
12.12.2021 06:25 0,1 C 5,2 C -1,2 C -0,3 C -1,0 C 0,0 C 89 % 95 % 1026,2 hPa 0,0 l/m 0,6 km/h (0 Bft) SW 225 0 min -1,5 C -1,0 C 0,0 km/h (0 Bft)
12.12.2021 06:30 0,0 C 5,2 C -1,3 C -0,3 C -1,0 C 0,0 C 89 % 95 % 1026,2 hPa 0,0 l/m 0,0 km/h (0 Bft) S 180 0 min -1,6 C -1,0 C 0,0 km/h (0 Bft)
12.12.2021 06:35 0,0 C 5,2 C -1,0 C -0,3 C -0,9 C 0,0 C 89 % 95 % 1026,2 hPa 0,0 l/m 0,3 km/h (0 Bft) S-SO 157 0 min -1,6 C -0,9 C 0,0 km/h (0 Bft)
12.12.2021 06:40 0,0 C 5,2 C -0,9 C -0,3 C -0,8 C 0,0 C 89 % 95 % 1026,2 hPa 0,0 l/m 0,3 km/h (0 Bft) SO 135 0 min -1,6 C -0,8 C 0,0 km/h (0 Bft)
12.12.2021 06:45 0,0 C 5,2 C -0,9 C -0,3 C -0,9 C 0,0 C 89 % 95 % 1026,2 hPa 0,0 l/m 0,5 km/h (0 Bft) SO 135 0 min -1,6 C -0,9 C 3,1 km/h (1 Bft)
12.12.2021 06:50 0,0 C 5,2 C -1,0 C -0,3 C -0,9 C 0,0 C 89 % 95 % 1026,5 hPa 0,0 l/m 1,3 km/h (1 Bft) S-SO 157 0 min -1,6 C -0,9 C 2,6 km/h (1 Bft)
12.12.2021 06:55 0,1 C 5,2 C -0,9 C -0,2 C -0,9 C 0,0 C 89 % 95 % 1026,5 hPa 0,0 l/m 1,9 km/h (1 Bft) S 180 0 min -1,5 C -0,9 C 2,9 km/h (1 Bft)
12.12.2021 07:00 0,1 C 5,2 C -0,9 C -0,2 C -0,9 C 0,0 C 89 % 95 % 1026,5 hPa 0,0 l/m 1,4 km/h (1 Bft) SO 135 0 min -1,5 C -0,9 C 0,0 km/h (0 Bft)
12.12.2021 07:05 0,0 C 5,2 C -1,0 C -0,3 C -1,0 C 0,0 C 89 % 95 % 1026,5 hPa 0,0 l/m 1,0 km/h (0 Bft) S 180 0 min -1,6 C -1,0 C 2,3 km/h (1 Bft)
12.12.2021 07:10 0,1 C 5,2 C -1,1 C -0,3 C -1,1 C 0,0 C 89 % 95 % 1026,3 hPa 0,0 l/m 1,3 km/h (1 Bft) S 180 0 min -1,5 C -1,1 C 4,2 km/h (1 Bft)
12.12.2021 07:15 0,1 C 5,2 C -1,1 C -0,3 C -1,0 C 0,0 C 89 % 95 % 1026,3 hPa 0,0 l/m 2,3 km/h (1 Bft) S 180 0 min -1,5 C -1,0 C 3,7 km/h (1 Bft)
12.12.2021 07:20 0,1 C 5,2 C -1,1 C -0,3 C -1,1 C 0,0 C 89 % 95 % 1026,3 hPa 0,0 l/m 2,3 km/h (1 Bft) S-SO 157 0 min -1,5 C -1,1 C 2,6 km/h (1 Bft)
12.12.2021 07:25 0,1 C 5,2 C -1,2 C -0,3 C -1,2 C 0,0 C 89 % 95 % 1026,3 hPa 0,0 l/m 1,3 km/h (1 Bft) S 180 0 min -1,5 C -1,2 C 0,0 km/h (0 Bft)
12.12.2021 07:30 0,0 C 5,2 C -1,4 C -0,5 C -1,4 C 0,0 C 89 % 95 % 1026,3 hPa 0,0 l/m 0,6 km/h (0 Bft) S 180 0 min -1,6 C -1,4 C 3,2 km/h (1 Bft)
12.12.2021 07:35 -0,1 C 5,2 C -1,5 C -0,5 C -1,4 C 0,0 C 89 % 95 % 1026,3 hPa 0,0 l/m 0,6 km/h (0 Bft) S-SO 157 0 min -1,7 C -1,4 C 0,0 km/h (0 Bft)
12.12.2021 07:40 -0,1 C 5,2 C -1,5 C -0,6 C -1,5 C 0,0 C 89 % 95 % 1026,3 hPa 0,0 l/m 1,0 km/h (0 Bft) SO 135 0 min -1,7 C -1,5 C 3,1 km/h (1 Bft)
12.12.2021 07:45 -0,1 C 5,1 C -1,6 C -0,6 C -1,5 C 0,0 C 89 % 95 % 1026,3 hPa 0,0 l/m 1,1 km/h (1 Bft) S 180 0 min -1,7 C -1,5 C 2,9 km/h (1 Bft)
12.12.2021 07:50 -0,1 C 5,1 C -1,5 C -0,5 C -1,4 C 0,0 C 89 % 95 % 1026,3 hPa 0,0 l/m 1,8 km/h (1 Bft) S-SO 157 0 min -1,7 C -1,4 C 4,8 km/h (1 Bft)
12.12.2021 07:55 -0,1 C 5,1 C -1,3 C -0,5 C -1,3 C 0,0 C 89 % 95 % 1026,3 hPa 0,0 l/m 2,4 km/h (1 Bft) SO 135 0 min -1,7 C -1,3 C 1,9 km/h (1 Bft)
12.12.2021 08:00 -0,1 C 5,2 C -1,4 C -0,5 C -1,2 C 0,0 C 89 % 95 % 1026,3 hPa 0,0 l/m 2,1 km/h (1 Bft) S 180 0 min -1,7 C -1,2 C 1,6 km/h (1 Bft)
12.12.2021 08:05 -0,1 C 5,2 C -1,4 C -0,5 C -1,3 C 0,0 C 89 % 95 % 1026,3 hPa 0,0 l/m 0,8 km/h (0 Bft) S 180 0 min -1,7 C -1,3 C 0,0 km/h (0 Bft)
12.12.2021 08:10 -0,1 C 5,2 C -1,5 C -0,5 C -1,4 C 0,0 C 89 % 95 % 1026,3 hPa 0,0 l/m 0,5 km/h (0 Bft) SO 135 0 min -1,7 C -1,4 C 0,0 km/h (0 Bft)
12.12.2021 08:15 -0,1 C 5,2 C -1,6 C -0,6 C -1,6 C 0,0 C 89 % 95 % 1026,3 hPa 0,0 l/m 0,3 km/h (0 Bft) S 180 0 min -1,7 C -1,6 C 0,0 km/h (0 Bft)
12.12.2021 08:20 -0,1 C 5,1 C -1,5 C -0,6 C -1,6 C 0,0 C 89 % 95 % 1026,3 hPa 0,0 l/m 0,6 km/h (0 Bft) S 180 0 min -1,7 C -1,6 C 3,1 km/h (1 Bft)
12.12.2021 08:25 -0,1 C 5,2 C -1,3 C -0,5 C -1,4 C 0,0 C 89 % 95 % 1026,3 hPa 0,0 l/m 1,4 km/h (1 Bft) S-SO 157 0 min -1,7 C -1,4 C 6,3 km/h (2 Bft)
12.12.2021 08:30 -0,1 C 5,2 C -1,1 C -0,5 C -1,2 C 0,0 C 89 % 95 % 1026,8 hPa 0,0 l/m 1,9 km/h (1 Bft) S-SO 157 0 min -1,7 C -1,2 C 5,0 km/h (1 Bft)
12.12.2021 08:35 0,1 C 5,2 C -0,9 C -0,4 C -1,5 C 0,0 C 89 % 95 % 1026,8 hPa 0,0 l/m 2,9 km/h (1 Bft) S-SO 157 0 min -1,5 C -1,5 C 4,0 km/h (1 Bft)
12.12.2021 08:40 0,1 C 5,2 C -0,9 C -0,2 C -0,9 C 0,0 C 89 % 95 % 1026,8 hPa 0,0 l/m 2,3 km/h (1 Bft) SO 135 0 min -1,5 C -0,9 C 0,0 km/h (0 Bft)
12.12.2021 08:45 0,0 C 5,2 C -0,9 C -0,3 C -0,8 C 0,0 C 89 % 95 % 1026,8 hPa 0,0 l/m 1,4 km/h (1 Bft) SO 135 0 min -1,6 C -0,8 C 2,7 km/h (1 Bft)
12.12.2021 08:50 0,1 C 5,2 C -0,8 C -0,2 C -0,7 C 0,0 C 89 % 95 % 1026,8 hPa 0,0 l/m 1,6 km/h (1 Bft) S 180 0 min -1,5 C -0,7 C 3,7 km/h (1 Bft)
12.12.2021 08:55 0,3 C 5,2 C -0,6 C 0,0 C -0,6 C 0,0 C 89 % 95 % 1026,8 hPa 0,0 l/m 2,4 km/h (1 Bft) S-SO 157 0 min -1,3 C -0,6 C 3,7 km/h (1 Bft)
12.12.2021 09:00 0,3 C 5,2 C -0,5 C 0,0 C -0,7 C 0,0 C 89 % 95 % 1026,8 hPa 0,0 l/m 2,7 km/h (1 Bft) S-SO 157 0 min -1,3 C -0,7 C 2,3 km/h (1 Bft)
12.12.2021 09:05 0,5 C 5,2 C -0,3 C 0,1 C -0,8 C 0,0 C 89 % 95 % 1026,8 hPa 0,0 l/m 3,1 km/h (1 Bft) S-SO 157 0 min -1,1 C -0,8 C 8,5 km/h (2 Bft)
12.12.2021 09:10 0,5 C 5,2 C -0,1 C 0,2 C -0,5 C 0,0 C 89 % 95 % 1026,8 hPa 0,0 l/m 3,1 km/h (1 Bft) S 180 0 min -1,1 C -0,5 C 5,5 km/h (1 Bft)
12.12.2021 09:15 0,7 C 5,2 C -0,1 C 0,5 C 0,1 C 0,0 C 89 % 94 % 1026,8 hPa 0,0 l/m 2,6 km/h (1 Bft) SO 135 0 min -0,9 C 0,1 C 3,9 km/h (1 Bft)
12.12.2021 09:20 0,7 C 5,2 C 0,0 C 0,5 C 0,2 C 0,0 C 89 % 94 % 1026,8 hPa 0,0 l/m 2,3 km/h (1 Bft) SO 135 0 min -0,9 C 0,2 C 4,3 km/h (1 Bft)
12.12.2021 09:25 0,8 C 5,2 C 0,1 C 0,6 C 0,2 C 0,0 C 89 % 94 % 1026,8 hPa 0,0 l/m 2,4 km/h (1 Bft) W-SW 247 0 min -0,8 C 0,2 C 4,3 km/h (1 Bft)
12.12.2021 09:30 0,9 C 5,2 C 0,1 C 0,5 C -0,3 C 0,0 C 89 % 94 % 1026,6 hPa 0,0 l/m 3,2 km/h (1 Bft) S 180 0 min -0,7 C -0,3 C 5,0 km/h (1 Bft)
12.12.2021 09:35 1,0 C 5,1 C 0,2 C 0,4 C -0,9 C 0,0 C 89 % 94 % 1026,6 hPa 0,0 l/m 4,3 km/h (1 Bft) S-SW 202 0 min -0,6 C -0,9 C 11,9 km/h (2 Bft)
12.12.2021 09:40 1,1 C 5,1 C 0,3 C 0,4 C -0,9 C 0,0 C 89 % 95 % 1026,6 hPa 0,0 l/m 4,3 km/h (1 Bft) S 180 0 min -0,5 C -0,9 C 1,9 km/h (1 Bft)
12.12.2021 09:45 1,2 C 5,1 C 0,3 C 0,6 C -0,7 C 0,0 C 89 % 95 % 1026,6 hPa 0,0 l/m 4,3 km/h (1 Bft) S 180 0 min -0,4 C -0,7 C 12,6 km/h (3 Bft)
12.12.2021 09:50 1,5 C 5,1 C 0,4 C 0,7 C -0,8 C 0,0 C 89 % 95 % 1026,6 hPa 0,0 l/m 4,8 km/h (1 Bft) S 180 0 min -0,1 C -2,4 C 10,6 km/h (2 Bft)
12.12.2021 09:55 1,5 C 5,1 C 0,6 C 0,8 C -0,6 C 0,0 C 89 % 95 % 1026,6 hPa 0,0 l/m 4,7 km/h (1 Bft) S 180 0 min -0,1 C -2,1 C 6,6 km/h (2 Bft)
12.12.2021 10:00 1,6 C 5,1 C 0,7 C 0,8 C -0,8 C 0,0 C 89 % 95 % 1026,6 hPa 0,0 l/m 5,1 km/h (1 Bft) SO 135 0 min -0,0 C -2,5 C 7,6 km/h (2 Bft)
12.12.2021 10:05 1,7 C 5,1 C 0,9 C 1,0 C -0,4 C 0,0 C 88 % 94 % 1026,6 hPa 0,0 l/m 5,3 km/h (1 Bft) S-SO 157 0 min -0,1 C -2,2 C 6,9 km/h (2 Bft)
12.12.2021 10:10 1,9 C 5,1 C 1,0 C 1,2 C -0,2 C 0,0 C 88 % 94 % 1026,6 hPa 0,0 l/m 5,3 km/h (1 Bft) S 180 0 min 0,1 C -2,0 C 9,5 km/h (2 Bft)
12.12.2021 10:15 2,0 C 5,1 C 1,1 C 1,5 C 0,6 C 0,0 C 88 % 94 % 1026,6 hPa 0,0 l/m 4,8 km/h (1 Bft) S-SO 157 0 min 0,2 C -0,8 C 12,9 km/h (3 Bft)
12.12.2021 10:20 2,0 C 5,1 C 1,3 C 1,8 C 1,3 C 0,0 C 88 % 94 % 1026,6 hPa 0,0 l/m 4,0 km/h (1 Bft) W-SW 247 0 min 0,2 C 1,3 C 4,7 km/h (1 Bft)
12.12.2021 10:25 2,2 C 5,1 C 1,5 C 2,2 C 2,1 C 0,0 C 88 % 94 % 1026,6 hPa 0,0 l/m 3,5 km/h (1 Bft) W-SW 247 0 min 0,4 C 2,1 C 2,4 km/h (1 Bft)
12.12.2021 10:30 2,3 C 5,1 C 1,6 C 2,3 C 2,3 C 0,0 C 88 % 94 % 1026,7 hPa 0,0 l/m 3,5 km/h (1 Bft) SO 135 0 min 0,5 C 2,3 C 2,9 km/h (1 Bft)
12.12.2021 10:35 2,4 C 5,1 C 1,8 C 2,4 C 2,4 C 0,0 C 88 % 94 % 1026,7 hPa 0,0 l/m 3,5 km/h (1 Bft) S 180 0 min 0,6 C 2,4 C 5,0 km/h (1 Bft)
12.12.2021 10:40 2,4 C 5,1 C 1,9 C 2,3 C 2,2 C 0,0 C 88 % 94 % 1026,7 hPa 0,0 l/m 4,2 km/h (1 Bft) S 180 0 min 0,6 C 2,2 C 11,7 km/h (2 Bft)
12.12.2021 10:45 2,5 C 5,1 C 2,0 C 2,3 C 1,9 C 0,0 C 88 % 93 % 1026,7 hPa 0,0 l/m 5,3 km/h (1 Bft) S 180 0 min 0,7 C 0,4 C 12,7 km/h (3 Bft)
12.12.2021 10:50 2,7 C 5,1 C 2,1 C 2,4 C 1,9 C 0,0 C 87 % 93 % 1026,0 hPa 0,0 l/m 5,5 km/h (1 Bft) S 180 0 min 0,8 C 0,4 C 6,6 km/h (2 Bft)
12.12.2021 10:55 2,7 C 5,1 C 2,2 C 2,8 C 2,8 C 0,1 C 87 % 93 % 1026,0 hPa 0,0 l/m 4,2 km/h (1 Bft) S 180 0 min 0,8 C 2,8 C 2,4 km/h (1 Bft)
12.12.2021 11:00 2,8 C 5,1 C 2,3 C 3,1 C 3,1 C 0,3 C 87 % 93 % 1026,0 hPa 0,0 l/m 3,7 km/h (1 Bft) S 180 0 min 0,9 C 3,1 C 6,9 km/h (2 Bft)
12.12.2021 11:05 2,8 C 5,1 C 2,4 C 2,8 C 2,8 C 0,0 C 87 % 93 % 1026,0 hPa 0,0 l/m 5,0 km/h (1 Bft) S 180 0 min 0,9 C 1,6 C 6,0 km/h (2 Bft)
12.12.2021 11:10 3,0 C 5,1 C 2,5 C 2,9 C 2,8 C 0,0 C 87 % 93 % 1025,7 hPa 0,0 l/m 5,6 km/h (1 Bft) S-SO 157 0 min 1,1 C 1,3 C 4,8 km/h (1 Bft)
12.12.2021 11:15 3,0 C 5,1 C 2,7 C 3,8 C 3,8 C 0,8 C 86 % 93 % 1025,7 hPa 0,0 l/m 4,3 km/h (1 Bft) SW 225 0 min 0,9 C 3,8 C 2,9 km/h (1 Bft)
12.12.2021 11:20 3,2 C 5,1 C 2,8 C 4,7 C 4,7 C 1,5 C 86 % 93 % 1025,7 hPa 0,0 l/m 3,7 km/h (1 Bft) O-SO 112 0 min 1,1 C 4,7 C 4,0 km/h (1 Bft)
12.12.2021 11:25 3,2 C 5,1 C 3,0 C 5,1 C 5,1 C 1,9 C 86 % 92 % 1025,7 hPa 0,0 l/m 3,7 km/h (1 Bft) S 180 0 min 1,1 C 5,1 C 4,2 km/h (1 Bft)
12.12.2021 11:30 3,3 C 5,1 C 3,1 C 5,2 C 5,2 C 1,9 C 86 % 92 % 1026,0 hPa 0,0 l/m 3,2 km/h (1 Bft) W-SW 247 0 min 1,2 C 5,2 C 4,8 km/h (1 Bft)
12.12.2021 11:35 3,5 C 5,1 C 3,1 C 5,2 C 5,2 C 1,7 C 85 % 91 % 1026,0 hPa 0,0 l/m 3,2 km/h (1 Bft) S-SO 157 0 min 1,2 C 5,2 C 5,3 km/h (1 Bft)
12.12.2021 11:40 3,4 C 5,1 C 3,2 C 5,1 C 5,1 C 1,7 C 85 % 91 % 1026,0 hPa 0,0 l/m 3,1 km/h (1 Bft) N-NO 22 0 min 1,1 C 5,1 C 3,4 km/h (1 Bft)
12.12.2021 11:45 3,5 C 5,1 C 3,2 C 4,8 C 4,8 C 1,3 C 85 % 91 % 1026,0 hPa 0,0 l/m 3,4 km/h (1 Bft) S 180 0 min 1,2 C 4,8 C 5,1 km/h (1 Bft)
12.12.2021 11:50 3,5 C 5,1 C 3,3 C 4,9 C 4,9 C 1,4 C 85 % 91 % 1026,0 hPa 0,0 l/m 3,4 km/h (1 Bft) S 180 0 min 1,2 C 4,9 C 3,9 km/h (1 Bft)
12.12.2021 11:55 3,6 C 5,1 C 3,5 C 5,2 C 5,2 C 1,6 C 84 % 91 % 1026,0 hPa 0,0 l/m 3,2 km/h (1 Bft) W-SW 247 0 min 1,2 C 5,2 C 1,6 km/h (1 Bft)
12.12.2021 12:00 3,6 C 5,1 C 3,5 C 5,2 C 5,2 C 1,6 C 84 % 91 % 1026,0 hPa 0,0 l/m 2,6 km/h (1 Bft) S 180 0 min 1,2 C 5,2 C 0,0 km/h (0 Bft)
12.12.2021 12:05 3,7 C 5,1 C 3,5 C 5,2 C 5,2 C 1,5 C 84 % 90 % 1026,0 hPa 0,0 l/m 2,7 km/h (1 Bft) W 270 0 min 1,3 C 5,2 C 3,1 km/h (1 Bft)
12.12.2021 12:10 3,7 C 5,1 C 3,5 C 5,1 C 5,1 C 1,4 C 84 % 90 % 1026,0 hPa 0,0 l/m 2,7 km/h (1 Bft) SO 135 0 min 1,3 C 5,1 C 4,2 km/h (1 Bft)
12.12.2021 12:15 3,7 C 5,1 C 3,4 C 4,9 C 4,9 C 1,2 C 83 % 90 % 1026,0 hPa 0,0 l/m 3,2 km/h (1 Bft) W 270 0 min 1,1 C 4,9 C 3,7 km/h (1 Bft)
12.12.2021 12:20 3,7 C 5,1 C 3,4 C 4,7 C 4,7 C 1,0 C 83 % 90 % 1026,0 hPa 0,0 l/m 3,1 km/h (1 Bft) O-SO 112 0 min 1,1 C 4,7 C 5,5 km/h (1 Bft)
12.12.2021 12:25 3,7 C 5,1 C 3,3 C 4,7 C 4,7 C 1,0 C 83 % 89 % 1026,0 hPa 0,0 l/m 3,1 km/h (1 Bft) S 180 0 min 1,1 C 4,7 C 11,4 km/h (2 Bft)
12.12.2021 12:30 3,7 C 5,1 C 3,3 C 4,6 C 4,6 C 0,9 C 83 % 89 % 1026,1 hPa 0,0 l/m 3,1 km/h (1 Bft) S-SO 157 0 min 1,1 C 4,6 C 9,2 km/h (2 Bft)
12.12.2021 12:35 3,6 C 5,1 C 3,3 C 4,0 C 4,0 C 0,4 C 83 % 89 % 1026,1 hPa 0,0 l/m 3,9 km/h (1 Bft) S-SW 202 0 min 1,0 C 4,0 C 5,5 km/h (1 Bft)
12.12.2021 12:40 3,7 C 5,1 C 3,3 C 3,8 C 3,8 C 0,1 C 83 % 89 % 1026,1 hPa 0,0 l/m 4,2 km/h (1 Bft) NW 315 0 min 1,1 C 3,8 C 7,6 km/h (2 Bft)
12.12.2021 12:45 3,6 C 5,1 C 3,3 C 4,2 C 4,2 C 0,6 C 82 % 89 % 1026,1 hPa 0,0 l/m 3,5 km/h (1 Bft) S-SO 157 0 min 0,8 C 4,2 C 3,2 km/h (1 Bft)
12.12.2021 12:50 3,7 C 5,1 C 3,3 C 4,2 C 4,2 C 0,5 C 82 % 89 % 1026,1 hPa 0,0 l/m 3,7 km/h (1 Bft) S-SW 202 0 min 0,9 C 4,2 C 6,3 km/h (2 Bft)
12.12.2021 12:55 3,7 C 5,1 C 3,5 C 4,3 C 4,3 C 0,6 C 82 % 89 % 1026,1 hPa 0,0 l/m 3,9 km/h (1 Bft) NO 45 0 min 0,9 C 4,3 C 13,2 km/h (3 Bft)
12.12.2021 13:00 3,7 C 5,1 C 3,5 C 4,4 C 4,4 C 0,7 C 82 % 88 % 1026,1 hPa 0,0 l/m 3,5 km/h (1 Bft) SO 135 0 min 0,9 C 4,4 C 6,6 km/h (2 Bft)
12.12.2021 13:05 3,7 C 5,1 C 3,5 C 4,5 C 4,5 C 0,8 C 82 % 88 % 1026,1 hPa 0,0 l/m 3,4 km/h (1 Bft) SO 135 0 min 0,9 C 4,5 C 3,5 km/h (1 Bft)
12.12.2021 13:10 3,8 C 5,1 C 3,5 C 4,2 C 4,2 C 0,4 C 82 % 88 % 1026,1 hPa 0,0 l/m 4,0 km/h (1 Bft) S 180 0 min 1,0 C 4,2 C 7,7 km/h (2 Bft)
12.12.2021 13:15 3,8 C 5,1 C 3,5 C 3,9 C 3,9 C 0,1 C 82 % 88 % 1026,1 hPa 0,0 l/m 4,5 km/h (1 Bft) O-NO 67 0 min 1,0 C 3,9 C 15,8 km/h (3 Bft)
12.12.2021 13:20 3,9 C 5,1 C 3,5 C 3,9 C 3,9 C 0,0 C 82 % 88 % 1026,1 hPa 0,0 l/m 4,7 km/h (1 Bft) SW 225 0 min 1,1 C 3,0 C 12,1 km/h (2 Bft)
12.12.2021 13:25 3,8 C 5,1 C 3,6 C 3,8 C 3,8 C 0,0 C 82 % 88 % 1026,1 hPa 0,0 l/m 5,8 km/h (2 Bft) S 180 0 min 1,0 C 2,4 C 8,7 km/h (2 Bft)
12.12.2021 13:30 3,9 C 5,1 C 3,6 C 3,9 C 3,8 C 0,0 C 82 % 88 % 1025,4 hPa 0,0 l/m 5,6 km/h (1 Bft) S 180 0 min 1,1 C 2,5 C 4,5 km/h (1 Bft)
12.12.2021 13:35 4,0 C 5,1 C 3,8 C 5,2 C 5,2 C 1,2 C 82 % 88 % 1025,4 hPa 0,0 l/m 3,2 km/h (1 Bft) SW 225 0 min 1,2 C 5,2 C 4,3 km/h (1 Bft)
12.12.2021 13:40 4,1 C 5,1 C 3,8 C 5,4 C 5,4 C 1,3 C 82 % 89 % 1025,4 hPa 0,0 l/m 2,7 km/h (1 Bft) S-SW 202 0 min 1,3 C 5,4 C 4,3 km/h (1 Bft)
12.12.2021 13:45 4,0 C 5,1 C 3,8 C 5,2 C 5,2 C 1,2 C 82 % 88 % 1025,4 hPa 0,0 l/m 3,5 km/h (1 Bft) SO 135 0 min 1,2 C 5,2 C 7,1 km/h (2 Bft)
12.12.2021 13:50 4,0 C 5,1 C 3,8 C 4,6 C 4,6 C 0,6 C 82 % 88 % 1025,6 hPa 0,0 l/m 4,5 km/h (1 Bft) W 270 0 min 1,2 C 4,6 C 3,7 km/h (1 Bft)
12.12.2021 13:55 4,0 C 5,1 C 3,8 C 4,2 C 4,2 C 0,2 C 82 % 88 % 1025,6 hPa 0,0 l/m 5,5 km/h (1 Bft) O-NO 67 0 min 1,2 C 3,0 C 6,6 km/h (2 Bft)
12.12.2021 14:00 4,0 C 5,1 C 3,8 C 4,7 C 4,7 C 0,7 C 82 % 88 % 1025,6 hPa 0,0 l/m 4,2 km/h (1 Bft) N 360 0 min 1,2 C 4,7 C 2,1 km/h (1 Bft)
12.12.2021 14:05 4,0 C 5,1 C 3,7 C 4,9 C 4,9 C 0,9 C 82 % 88 % 1025,6 hPa 0,0 l/m 3,4 km/h (1 Bft) SW 225 0 min 1,2 C 4,9 C 6,4 km/h (2 Bft)
12.12.2021 14:10 4,0 C 5,1 C 3,6 C 4,8 C 4,8 C 0,8 C 82 % 88 % 1025,4 hPa 0,0 l/m 3,4 km/h (1 Bft) S 180 0 min 1,2 C 4,8 C 4,5 km/h (1 Bft)
12.12.2021 14:15 4,0 C 5,1 C 3,5 C 4,7 C 4,7 C 0,7 C 82 % 88 % 1025,4 hPa 0,0 l/m 3,1 km/h (1 Bft) S-SW 202 0 min 1,2 C 4,7 C 3,9 km/h (1 Bft)
12.12.2021 14:20 4,0 C 5,1 C 3,5 C 4,7 C 4,7 C 0,7 C 82 % 88 % 1025,4 hPa 0,0 l/m 2,4 km/h (1 Bft) SO 135 0 min 1,2 C 4,7 C 1,9 km/h (1 Bft)
12.12.2021 14:25 4,1 C 5,1 C 3,5 C 4,1 C 4,1 C 0,0 C 82 % 88 % 1025,4 hPa 0,0 l/m 4,3 km/h (1 Bft) SW 225 0 min 1,3 C 4,1 C 9,7 km/h (2 Bft)
12.12.2021 14:30 4,1 C 5,1 C 3,5 C 4,0 C 3,9 C 0,0 C 82 % 88 % 1025,4 hPa 0,0 l/m 4,7 km/h (1 Bft) SO 135 0 min 1,3 C 3,0 C 5,3 km/h (1 Bft)
12.12.2021 14:35 4,0 C 5,1 C 3,5 C 4,3 C 4,3 C 0,3 C 82 % 88 % 1025,4 hPa 0,0 l/m 3,9 km/h (1 Bft) S-SO 157 0 min 1,2 C 4,3 C 4,7 km/h (1 Bft)
12.12.2021 14:40 4,0 C 5,1 C 3,5 C 4,3 C 4,3 C 0,3 C 82 % 88 % 1025,4 hPa 0,0 l/m 3,7 km/h (1 Bft) S 180 0 min 1,2 C 4,3 C 5,5 km/h (1 Bft)
12.12.2021 14:45 4,0 C 5,1 C 3,5 C 4,2 C 4,2 C 0,2 C 82 % 88 % 1025,4 hPa 0,0 l/m 3,7 km/h (1 Bft) S 180 0 min 1,2 C 4,2 C 4,3 km/h (1 Bft)
12.12.2021 14:50 4,0 C 5,1 C 3,5 C 4,2 C 4,2 C 0,2 C 82 % 88 % 1025,4 hPa 0,0 l/m 3,7 km/h (1 Bft) SO 135 0 min 1,2 C 4,2 C 4,0 km/h (1 Bft)
12.12.2021 14:55 4,1 C 5,1 C 3,5 C 4,1 C 4,0 C 0,0 C 82 % 89 % 1025,4 hPa 0,0 l/m 3,9 km/h (1 Bft) SO 135 0 min 1,3 C 4,0 C 7,6 km/h (2 Bft)
12.12.2021 15:00 4,0 C 5,1 C 3,5 C 3,9 C 3,6 C 0,0 C 82 % 88 % 1025,4 hPa 0,0 l/m 4,5 km/h (1 Bft) NO 45 0 min 1,2 C 3,6 C 2,9 km/h (1 Bft)
12.12.2021 15:05 4,0 C 5,1 C 3,5 C 3,9 C 3,6 C 0,0 C 82 % 88 % 1025,4 hPa 0,0 l/m 4,5 km/h (1 Bft) W-SW 247 0 min 1,2 C 3,6 C 3,2 km/h (1 Bft)
12.12.2021 15:10 4,0 C 5,1 C 3,5 C 4,0 C 4,0 C 0,0 C 82 % 89 % 1025,1 hPa 0,0 l/m 3,7 km/h (1 Bft) S-SO 157 0 min 1,2 C 4,0 C 4,8 km/h (1 Bft)
12.12.2021 15:15 4,0 C 5,1 C 3,5 C 4,1 C 4,1 C 0,1 C 82 % 89 % 1025,1 hPa 0,0 l/m 3,2 km/h (1 Bft) SW 225 0 min 1,2 C 4,1 C 4,7 km/h (1 Bft)
12.12.2021 15:20 4,0 C 5,1 C 3,4 C 3,9 C 3,8 C 0,0 C 82 % 89 % 1025,1 hPa 0,0 l/m 3,7 km/h (1 Bft) S 180 0 min 1,2 C 3,8 C 10,3 km/h (2 Bft)
12.12.2021 15:25 3,9 C 5,1 C 3,3 C 3,8 C 3,6 C 0,0 C 82 % 89 % 1025,1 hPa 0,0 l/m 3,9 km/h (1 Bft) W-SW 247 0 min 1,1 C 3,6 C 3,2 km/h (1 Bft)
12.12.2021 15:30 3,9 C 5,1 C 3,3 C 3,9 C 3,8 C 0,0 C 83 % 89 % 1025,2 hPa 0,0 l/m 3,4 km/h (1 Bft) S 180 0 min 1,3 C 3,8 C 5,1 km/h (1 Bft)
12.12.2021 15:35 3,8 C 5,1 C 3,2 C 3,7 C 3,6 C 0,0 C 82 % 89 % 1025,2 hPa 0,0 l/m 3,9 km/h (1 Bft) S-SO 157 0 min 1,0 C 3,6 C 4,3 km/h (1 Bft)
12.12.2021 15:40 3,9 C 5,1 C 3,2 C 3,7 C 3,2 C 0,0 C 83 % 89 % 1025,2 hPa 0,0 l/m 4,3 km/h (1 Bft) S 180 0 min 1,3 C 3,2 C 7,1 km/h (2 Bft)
12.12.2021 15:45 3,7 C 5,1 C 3,1 C 3,5 C 3,0 C 0,0 C 83 % 89 % 1025,2 hPa 0,0 l/m 4,2 km/h (1 Bft) SW 225 0 min 1,1 C 3,0 C 2,6 km/h (1 Bft)
12.12.2021 15:50 3,6 C 5,1 C 3,0 C 3,3 C 2,8 C 0,0 C 83 % 90 % 1024,8 hPa 0,0 l/m 4,0 km/h (1 Bft) SW 225 0 min 1,0 C 2,8 C 3,7 km/h (1 Bft)
12.12.2021 15:55 3,5 C 5,1 C 2,9 C 3,2 C 2,6 C 0,0 C 84 % 90 % 1024,8 hPa 0,0 l/m 3,9 km/h (1 Bft) S-SO 157 0 min 1,1 C 2,6 C 4,0 km/h (1 Bft)
12.12.2021 16:00 3,5 C 5,2 C 2,8 C 3,2 C 2,6 C 0,0 C 84 % 90 % 1024,8 hPa 0,0 l/m 3,7 km/h (1 Bft) O 90 0 min 1,1 C 2,6 C 5,5 km/h (1 Bft)
12.12.2021 16:05 3,5 C 5,2 C 2,8 C 3,1 C 2,4 C 0,0 C 85 % 91 % 1024,8 hPa 0,0 l/m 4,0 km/h (1 Bft) N-NO 22 0 min 1,2 C 2,4 C 10,0 km/h (2 Bft)
12.12.2021 16:10 3,4 C 5,2 C 2,8 C 3,1 C 2,4 C 0,0 C 85 % 91 % 1024,6 hPa 0,0 l/m 3,7 km/h (1 Bft) O-NO 67 0 min 1,1 C 2,4 C 1,8 km/h (1 Bft)
12.12.2021 16:15 3,3 C 5,2 C 2,7 C 3,1 C 2,8 C 0,0 C 85 % 91 % 1024,6 hPa 0,0 l/m 3,2 km/h (1 Bft) O-SO 112 0 min 1,0 C 2,8 C 3,7 km/h (1 Bft)
12.12.2021 16:20 3,3 C 5,2 C 2,8 C 3,2 C 3,0 C 0,0 C 85 % 91 % 1024,6 hPa 0,0 l/m 3,1 km/h (1 Bft) N-NW 337 0 min 1,0 C 3,0 C 2,6 km/h (1 Bft)
12.12.2021 16:25 3,3 C 5,2 C 2,7 C 3,2 C 3,1 C 0,0 C 85 % 91 % 1024,6 hPa 0,0 l/m 3,2 km/h (1 Bft) S 180 0 min 1,0 C 3,1 C 7,9 km/h (2 Bft)
12.12.2021 16:30 3,3 C 5,2 C 2,9 C 3,4 C 3,4 C 0,1 C 85 % 91 % 1024,6 hPa 0,0 l/m 2,7 km/h (1 Bft) O 90 0 min 1,0 C 3,4 C 4,5 km/h (1 Bft)
12.12.2021 16:35 3,3 C 5,2 C 2,8 C 3,4 C 3,4 C 0,1 C 85 % 91 % 1024,6 hPa 0,0 l/m 3,2 km/h (1 Bft) NW 315 0 min 1,0 C 3,4 C 2,7 km/h (1 Bft)
12.12.2021 16:40 3,5 C 5,2 C 2,9 C 3,5 C 3,4 C 0,0 C 86 % 91 % 1024,6 hPa 0,0 l/m 3,2 km/h (1 Bft) W-SW 247 0 min 1,4 C 3,4 C 7,9 km/h (2 Bft)
12.12.2021 16:45 3,5 C 5,2 C 2,9 C 3,5 C 3,4 C 0,0 C 86 % 91 % 1024,6 hPa 0,0 l/m 3,1 km/h (1 Bft) S 180 0 min 1,4 C 3,4 C 2,7 km/h (1 Bft)
12.12.2021 16:50 3,4 C 5,2 C 2,9 C 3,7 C 3,7 C 0,3 C 86 % 91 % 1024,9 hPa 0,0 l/m 2,9 km/h (1 Bft) W-NW 292 0 min 1,3 C 3,7 C 3,4 km/h (1 Bft)
12.12.2021 16:55 3,5 C 5,2 C 3,0 C 3,7 C 3,7 C 0,2 C 86 % 90 % 1024,9 hPa 0,0 l/m 2,9 km/h (1 Bft) O-NO 67 0 min 1,4 C 3,7 C 2,3 km/h (1 Bft)
12.12.2021 17:00 3,5 C 5,2 C 3,0 C 3,6 C 3,6 C 0,1 C 86 % 90 % 1024,9 hPa 0,0 l/m 3,1 km/h (1 Bft) W-SW 247 0 min 1,4 C 3,6 C 6,9 km/h (2 Bft)
12.12.2021 17:05 3,6 C 5,2 C 3,0 C 3,7 C 3,7 C 0,1 C 86 % 90 % 1024,9 hPa 0,0 l/m 3,2 km/h (1 Bft) SW 225 0 min 1,5 C 3,7 C 6,3 km/h (2 Bft)
12.12.2021 17:10 3,6 C 5,2 C 3,1 C 3,7 C 3,7 C 0,1 C 85 % 90 % 1024,8 hPa 0,0 l/m 3,2 km/h (1 Bft) W-SW 247 0 min 1,3 C 3,7 C 6,6 km/h (2 Bft)
12.12.2021 17:15 3,6 C 5,2 C 3,0 C 3,6 C 3,6 C 0,0 C 85 % 90 % 1024,8 hPa 0,0 l/m 3,4 km/h (1 Bft) SW 225 0 min 1,3 C 3,6 C 7,6 km/h (2 Bft)
12.12.2021 17:20 3,7 C 5,2 C 3,1 C 3,8 C 3,8 C 0,1 C 85 % 90 % 1024,8 hPa 0,0 l/m 2,9 km/h (1 Bft) W 270 0 min 1,4 C 3,8 C 1,8 km/h (1 Bft)
12.12.2021 17:25 3,6 C 5,2 C 3,1 C 3,9 C 3,9 C 0,3 C 85 % 90 % 1024,8 hPa 0,0 l/m 2,4 km/h (1 Bft) SO 135 0 min 1,3 C 3,9 C 1,8 km/h (1 Bft)
12.12.2021 17:30 3,7 C 5,2 C 3,1 C 4,0 C 4,0 C 0,3 C 85 % 90 % 1024,8 hPa 0,0 l/m 2,1 km/h (1 Bft) S 180 0 min 1,4 C 4,0 C 0,0 km/h (0 Bft)
12.12.2021 17:35 3,6 C 5,2 C 3,1 C 4,0 C 4,0 C 0,4 C 85 % 90 % 1024,8 hPa 0,0 l/m 1,9 km/h (1 Bft) S-SO 157 0 min 1,3 C 4,0 C 2,7 km/h (1 Bft)
12.12.2021 17:40 3,6 C 5,2 C 3,1 C 4,0 C 4,0 C 0,4 C 85 % 90 % 1024,8 hPa 0,0 l/m 1,9 km/h (1 Bft) S 180 0 min 1,3 C 4,0 C 3,4 km/h (1 Bft)
12.12.2021 17:45 3,6 C 5,2 C 3,1 C 4,0 C 4,0 C 0,4 C 85 % 90 % 1024,8 hPa 0,0 l/m 2,4 km/h (1 Bft) SW 225 0 min 1,3 C 4,0 C 1,9 km/h (1 Bft)
12.12.2021 17:50 3,6 C 5,2 C 3,1 C 4,0 C 4,0 C 0,4 C 85 % 90 % 1024,8 hPa 0,0 l/m 1,9 km/h (1 Bft) SW 225 0 min 1,3 C 4,0 C 2,6 km/h (1 Bft)
12.12.2021 17:55 3,7 C 5,2 C 3,1 C 4,0 C 4,0 C 0,3 C 85 % 90 % 1024,8 hPa 0,0 l/m 1,4 km/h (1 Bft) S-SO 157 0 min 1,4 C 4,0 C 4,3 km/h (1 Bft)
12.12.2021 18:00 3,6 C 5,3 C 3,1 C 4,0 C 4,0 C 0,4 C 85 % 90 % 1024,8 hPa 0,0 l/m 1,4 km/h (1 Bft) W-NW 292 0 min 1,3 C 4,0 C 1,9 km/h (1 Bft)
12.12.2021 18:05 3,7 C 5,3 C 3,2 C 4,1 C 4,1 C 0,4 C 85 % 90 % 1024,8 hPa 0,0 l/m 2,3 km/h (1 Bft) SW 225 0 min 1,4 C 4,1 C 1,8 km/h (1 Bft)
12.12.2021 18:10 3,7 C 5,3 C 3,2 C 4,1 C 4,1 C 0,4 C 85 % 90 % 1024,8 hPa 0,0 l/m 2,4 km/h (1 Bft) S-SW 202 0 min 1,4 C 4,1 C 4,8 km/h (1 Bft)
12.12.2021 18:15 3,7 C 5,3 C 3,2 C 4,1 C 4,1 C 0,4 C 85 % 90 % 1024,8 hPa 0,0 l/m 2,4 km/h (1 Bft) SW 225 0 min 1,4 C 4,1 C 2,6 km/h (1 Bft)
12.12.2021 18:20 3,7 C 5,3 C 3,2 C 4,1 C 4,1 C 0,4 C 85 % 90 % 1024,8 hPa 0,0 l/m 2,7 km/h (1 Bft) NW 315 0 min 1,4 C 4,1 C 3,5 km/h (1 Bft)
12.12.2021 18:25 3,7 C 5,3 C 3,2 C 4,0 C 4,0 C 0,3 C 85 % 90 % 1024,8 hPa 0,0 l/m 2,6 km/h (1 Bft) O-SO 112 0 min 1,4 C 4,0 C 2,7 km/h (1 Bft)
12.12.2021 18:30 3,7 C 5,3 C 3,2 C 3,9 C 3,9 C 0,2 C 85 % 90 % 1024,8 hPa 0,0 l/m 2,6 km/h (1 Bft) W 270 0 min 1,4 C 3,9 C 3,1 km/h (1 Bft)
12.12.2021 18:35 3,8 C 5,3 C 3,2 C 3,9 C 3,9 C 0,1 C 85 % 90 % 1024,8 hPa 0,0 l/m 2,4 km/h (1 Bft) N-NO 22 0 min 1,5 C 3,9 C 1,8 km/h (1 Bft)
12.12.2021 18:40 3,8 C 5,3 C 3,2 C 4,0 C 4,0 C 0,2 C 85 % 90 % 1024,8 hPa 0,0 l/m 2,7 km/h (1 Bft) SO 135 0 min 1,5 C 4,0 C 9,8 km/h (2 Bft)
12.12.2021 18:45 3,8 C 5,3 C 3,2 C 4,0 C 4,0 C 0,2 C 85 % 90 % 1024,8 hPa 0,0 l/m 2,7 km/h (1 Bft) S-SW 202 0 min 1,5 C 4,0 C 4,8 km/h (1 Bft)
12.12.2021 18:50 3,9 C 5,3 C 3,2 C 4,0 C 4,0 C 0,1 C 86 % 90 % 1024,8 hPa 0,0 l/m 2,9 km/h (1 Bft) O-SO 112 0 min 1,8 C 4,0 C 2,7 km/h (1 Bft)
12.12.2021 18:55 3,7 C 5,4 C 3,1 C 3,9 C 3,9 C 0,2 C 86 % 91 % 1024,8 hPa 0,0 l/m 1,9 km/h (1 Bft) SW 225 0 min 1,6 C 3,9 C 0,0 km/h (0 Bft)
12.12.2021 19:00 3,7 C 5,4 C 3,1 C 3,7 C 3,7 C 0,0 C 86 % 91 % 1024,8 hPa 0,0 l/m 2,1 km/h (1 Bft) O-NO 67 0 min 1,6 C 3,7 C 2,1 km/h (1 Bft)
12.12.2021 19:05 3,7 C 5,4 C 3,0 C 3,7 C 3,6 C 0,0 C 86 % 91 % 1024,8 hPa 0,0 l/m 2,3 km/h (1 Bft) S-SO 157 0 min 1,6 C 3,6 C 0,0 km/h (0 Bft)
12.12.2021 19:10 3,6 C 5,6 C 3,0 C 3,5 C 3,4 C 0,0 C 86 % 91 % 1025,6 hPa 0,0 l/m 2,3 km/h (1 Bft) W-SW 247 0 min 1,5 C 3,4 C 6,8 km/h (2 Bft)
12.12.2021 19:15 3,5 C 5,6 C 2,9 C 3,4 C 3,3 C 0,0 C 86 % 91 % 1025,6 hPa 0,0 l/m 1,9 km/h (1 Bft) SW 225 0 min 1,4 C 3,3 C 4,8 km/h (1 Bft)
12.12.2021 19:20 3,4 C 5,6 C 2,8 C 3,3 C 3,2 C 0,0 C 87 % 92 % 1025,6 hPa 0,0 l/m 2,1 km/h (1 Bft) W-SW 247 0 min 1,4 C 3,2 C 9,7 km/h (2 Bft)
12.12.2021 19:25 3,5 C 5,7 C 2,8 C 3,4 C 3,1 C 0,0 C 87 % 92 % 1025,6 hPa 0,0 l/m 1,8 km/h (1 Bft) S 180 0 min 1,5 C 3,1 C 1,9 km/h (1 Bft)
12.12.2021 19:30 3,5 C 5,7 C 2,7 C 3,4 C 3,1 C 0,0 C 87 % 92 % 1025,6 hPa 0,0 l/m 1,9 km/h (1 Bft) SO 135 0 min 1,5 C 3,1 C 5,3 km/h (1 Bft)
12.12.2021 19:35 3,3 C 5,7 C 2,7 C 3,2 C 3,1 C 0,0 C 87 % 93 % 1025,6 hPa 0,0 l/m 1,9 km/h (1 Bft) SW 225 0 min 1,3 C 3,1 C 0,0 km/h (0 Bft)
12.12.2021 19:40 3,3 C 5,8 C 2,7 C 3,2 C 3,1 C 0,0 C 87 % 93 % 1025,6 hPa 0,0 l/m 1,6 km/h (1 Bft) W 270 0 min 1,3 C 3,1 C 2,6 km/h (1 Bft)
12.12.2021 19:45 3,3 C 5,8 C 2,7 C 3,2 C 3,1 C 0,0 C 88 % 93 % 1025,6 hPa 0,0 l/m 1,9 km/h (1 Bft) SO 135 0 min 1,5 C 3,1 C 3,2 km/h (1 Bft)
12.12.2021 19:50 3,3 C 5,8 C 2,7 C 3,2 C 3,1 C 0,0 C 88 % 93 % 1025,6 hPa 0,0 l/m 1,9 km/h (1 Bft) O-SO 112 0 min 1,5 C 3,1 C 2,7 km/h (1 Bft)
12.12.2021 19:55 3,3 C 5,8 C 2,7 C 3,2 C 3,1 C 0,0 C 88 % 93 % 1025,6 hPa 0,0 l/m 1,1 km/h (1 Bft) S 180 0 min 1,5 C 3,1 C 1,9 km/h (1 Bft)
12.12.2021 20:00 3,2 C 5,8 C 2,7 C 3,2 C 3,1 C 0,0 C 88 % 93 % 1025,6 hPa 0,0 l/m 1,4 km/h (1 Bft) W-SW 247 0 min 1,4 C 3,1 C 0,0 km/h (0 Bft)
12.12.2021 20:05 3,2 C 5,8 C 2,7 C 3,2 C 3,1 C 0,0 C 88 % 93 % 1025,6 hPa 0,0 l/m 2,7 km/h (1 Bft) SW 225 0 min 1,4 C 3,1 C 5,5 km/h (1 Bft)
12.12.2021 20:10 3,2 C 5,8 C 2,7 C 3,0 C 2,7 C 0,0 C 88 % 93 % 1025,8 hPa 0,0 l/m 3,4 km/h (1 Bft) S-SO 157 0 min 1,4 C 2,7 C 4,3 km/h (1 Bft)
12.12.2021 20:15 3,2 C 5,8 C 2,7 C 3,1 C 2,9 C 0,0 C 88 % 93 % 1025,8 hPa 0,0 l/m 3,1 km/h (1 Bft) W-SW 247 0 min 1,4 C 2,9 C 3,1 km/h (1 Bft)
12.12.2021 20:20 3,2 C 5,8 C 2,7 C 3,1 C 3,0 C 0,0 C 88 % 93 % 1025,8 hPa 0,0 l/m 2,9 km/h (1 Bft) SW 225 0 min 1,4 C 3,0 C 6,8 km/h (2 Bft)
12.12.2021 20:25 3,2 C 5,8 C 2,7 C 3,2 C 3,1 C 0,0 C 88 % 93 % 1025,8 hPa 0,0 l/m 2,3 km/h (1 Bft) W-SW 247 0 min 1,4 C 3,1 C 0,0 km/h (0 Bft)
12.12.2021 20:30 3,2 C 5,9 C 2,7 C 3,2 C 3,2 C 0,0 C 89 % 93 % 1025,9 hPa 0,0 l/m 1,8 km/h (1 Bft) SO 135 0 min 1,6 C 3,2 C 0,0 km/h (0 Bft)
12.12.2021 20:35 3,2 C 5,9 C 2,7 C 3,2 C 3,2 C 0,0 C 89 % 93 % 1025,9 hPa 0,0 l/m 2,3 km/h (1 Bft) W-SW 247 0 min 1,6 C 3,2 C 4,0 km/h (1 Bft)
12.12.2021 20:40 3,3 C 5,9 C 2,7 C 3,3 C 3,2 C 0,0 C 89 % 93 % 1025,9 hPa 0,0 l/m 2,3 km/h (1 Bft) O-SO 112 0 min 1,7 C 3,2 C 0,0 km/h (0 Bft)
12.12.2021 20:45 3,2 C 5,9 C 2,7 C 3,2 C 3,2 C 0,0 C 89 % 94 % 1025,9 hPa 0,7 l/m 1,8 km/h (1 Bft) SO 135 0 min 1,6 C 3,2 C 4,8 km/h (1 Bft)
12.12.2021 20:50 3,2 C 5,9 C 2,7 C 3,2 C 3,2 C 0,0 C 89 % 94 % 1025,9 hPa 0,0 l/m 2,3 km/h (1 Bft) W-SW 247 0 min 1,6 C 3,2 C 4,0 km/h (1 Bft)
12.12.2021 20:55 3,2 C 5,9 C 2,7 C 3,2 C 3,2 C 0,0 C 89 % 94 % 1025,9 hPa 0,0 l/m 2,1 km/h (1 Bft) S 180 0 min 1,6 C 3,2 C 0,0 km/h (0 Bft)
12.12.2021 21:00 3,2 C 5,9 C 2,7 C 3,2 C 3,2 C 0,0 C 89 % 94 % 1025,9 hPa 0,0 l/m 1,4 km/h (1 Bft) W 270 0 min 1,6 C 3,2 C 2,3 km/h (1 Bft)
12.12.2021 21:05 3,1 C 5,9 C 2,7 C 3,2 C 3,2 C 0,1 C 89 % 94 % 1025,9 hPa 0,0 l/m 1,0 km/h (0 Bft) SW 225 0 min 1,5 C 3,2 C 2,1 km/h (1 Bft)
12.12.2021 21:10 3,1 C 5,9 C 2,7 C 3,2 C 3,2 C 0,1 C 89 % 94 % 1025,9 hPa 0,0 l/m 1,1 km/h (1 Bft) S 180 0 min 1,5 C 3,2 C 2,9 km/h (1 Bft)
12.12.2021 21:15 3,1 C 5,9 C 2,7 C 3,2 C 3,2 C 0,1 C 89 % 94 % 1025,9 hPa 0,0 l/m 1,8 km/h (1 Bft) W-SW 247 0 min 1,5 C 3,2 C 2,6 km/h (1 Bft)
12.12.2021 21:20 3,1 C 5,9 C 2,7 C 3,2 C 3,2 C 0,1 C 89 % 94 % 1025,9 hPa 0,0 l/m 1,8 km/h (1 Bft) SO 135 0 min 1,5 C 3,2 C 2,1 km/h (1 Bft)
12.12.2021 21:25 3,1 C 5,9 C 2,7 C 3,2 C 3,2 C 0,1 C 89 % 94 % 1025,9 hPa 0,0 l/m 1,4 km/h (1 Bft) S 180 0 min 1,5 C 3,2 C 2,7 km/h (1 Bft)
12.12.2021 21:30 3,1 C 5,9 C 2,7 C 3,2 C 3,2 C 0,1 C 89 % 94 % 1025,9 hPa 0,0 l/m 1,6 km/h (1 Bft) S-SW 202 0 min 1,5 C 3,2 C 4,5 km/h (1 Bft)
12.12.2021 21:35 3,1 C 6,0 C 2,7 C 3,2 C 3,2 C 0,1 C 89 % 94 % 1025,9 hPa 0,0 l/m 2,7 km/h (1 Bft) N-NO 22 0 min 1,5 C 3,2 C 5,8 km/h (2 Bft)
12.12.2021 21:40 3,1 C 6,0 C 2,7 C 3,1 C 3,0 C 0,0 C 89 % 94 % 1025,9 hPa 0,0 l/m 3,2 km/h (1 Bft) SW 225 0 min 1,5 C 3,0 C 4,3 km/h (1 Bft)
12.12.2021 21:45 3,0 C 6,0 C 2,7 C 3,1 C 3,1 C 0,1 C 89 % 94 % 1025,9 hPa 0,0 l/m 3,1 km/h (1 Bft) W-SW 247 0 min 1,4 C 3,1 C 2,9 km/h (1 Bft)
12.12.2021 21:50 3,0 C 6,0 C 2,7 C 3,2 C 3,2 C 0,2 C 89 % 94 % 1026,2 hPa 0,0 l/m 2,9 km/h (1 Bft) W-SW 247 0 min 1,4 C 3,2 C 3,2 km/h (1 Bft)
12.12.2021 21:55 3,0 C 6,0 C 2,7 C 2,9 C 2,7 C 0,0 C 89 % 94 % 1026,2 hPa 0,0 l/m 3,7 km/h (1 Bft) SW 225 0 min 1,4 C 2,7 C 6,3 km/h (2 Bft)
12.12.2021 22:00 3,0 C 6,0 C 2,7 C 2,8 C 2,5 C 0,0 C 89 % 94 % 1026,2 hPa 0,0 l/m 4,2 km/h (1 Bft) W-SW 247 0 min 1,4 C 2,5 C 3,4 km/h (1 Bft)
12.12.2021 22:05 3,1 C 6,0 C 2,8 C 3,1 C 3,1 C 0,0 C 89 % 94 % 1026,2 hPa 0,0 l/m 3,4 km/h (1 Bft) N-NO 22 0 min 1,5 C 3,1 C 2,9 km/h (1 Bft)
12.12.2021 22:10 3,1 C 6,0 C 2,8 C 3,4 C 3,4 C 0,3 C 89 % 94 % 1026,0 hPa 0,0 l/m 2,4 km/h (1 Bft) SW 225 0 min 1,5 C 3,4 C 5,5 km/h (1 Bft)
12.12.2021 22:15 3,0 C 6,0 C 2,8 C 3,3 C 3,3 C 0,3 C 89 % 94 % 1026,0 hPa 0,0 l/m 2,9 km/h (1 Bft) W-SW 247 0 min 1,4 C 3,3 C 2,9 km/h (1 Bft)
12.12.2021 22:20 3,1 C 6,0 C 2,8 C 3,3 C 3,3 C 0,2 C 89 % 94 % 1026,0 hPa 0,0 l/m 2,9 km/h (1 Bft) O-NO 67 0 min 1,5 C 3,3 C 1,8 km/h (1 Bft)
12.12.2021 22:25 3,0 C 6,0 C 2,8 C 3,4 C 3,4 C 0,4 C 89 % 94 % 1026,0 hPa 0,0 l/m 1,8 km/h (1 Bft) S-SO 157 0 min 1,4 C 3,4 C 2,3 km/h (1 Bft)
12.12.2021 22:30 3,0 C 6,0 C 2,9 C 3,4 C 3,4 C 0,4 C 89 % 94 % 1026,2 hPa 0,0 l/m 2,1 km/h (1 Bft) S-SO 157 0 min 1,4 C 3,4 C 5,0 km/h (1 Bft)
12.12.2021 22:35 3,1 C 6,0 C 2,9 C 3,4 C 3,4 C 0,3 C 89 % 94 % 1026,2 hPa 0,0 l/m 2,3 km/h (1 Bft) SO 135 0 min 1,5 C 3,4 C 0,0 km/h (0 Bft)
12.12.2021 22:40 3,1 C 6,0 C 2,9 C 3,4 C 3,4 C 0,3 C 89 % 94 % 1026,2 hPa 0,0 l/m 1,4 km/h (1 Bft) SW 225 0 min 1,5 C 3,4 C 3,9 km/h (1 Bft)
12.12.2021 22:45 3,1 C 6,0 C 2,9 C 3,5 C 3,5 C 0,4 C 89 % 94 % 1026,2 hPa 0,0 l/m 1,1 km/h (1 Bft) S 180 0 min 1,5 C 3,5 C 3,7 km/h (1 Bft)
12.12.2021 22:50 3,1 C 6,1 C 2,9 C 3,5 C 3,5 C 0,4 C 89 % 94 % 1026,2 hPa 0,0 l/m 1,4 km/h (1 Bft) SW 225 0 min 1,5 C 3,5 C 0,0 km/h (0 Bft)
12.12.2021 22:55 3,1 C 6,1 C 2,9 C 3,5 C 3,5 C 0,4 C 89 % 94 % 1026,2 hPa 0,0 l/m 1,9 km/h (1 Bft) S-SO 157 0 min 1,5 C 3,5 C 4,5 km/h (1 Bft)
12.12.2021 23:00 3,1 C 6,1 C 2,9 C 3,5 C 3,5 C 0,4 C 89 % 94 % 1026,2 hPa 0,0 l/m 2,3 km/h (1 Bft) S-SO 157 0 min 1,5 C 3,5 C 3,5 km/h (1 Bft)
12.12.2021 23:05 3,1 C 6,1 C 2,9 C 3,5 C 3,5 C 0,4 C 89 % 94 % 1026,2 hPa 0,0 l/m 1,9 km/h (1 Bft) SW 225 0 min 1,5 C 3,5 C 0,0 km/h (0 Bft)
12.12.2021 23:10 3,1 C 6,1 C 2,9 C 3,5 C 3,5 C 0,4 C 89 % 94 % 1026,1 hPa 0,0 l/m 1,4 km/h (1 Bft) W-NW 292 0 min 1,5 C 3,5 C 2,1 km/h (1 Bft)
12.12.2021 23:15 2,9 C 6,1 C 2,9 C 3,5 C 3,5 C 0,6 C 89 % 94 % 1026,1 hPa 0,0 l/m 1,6 km/h (1 Bft) S 180 0 min 1,3 C 3,5 C 3,4 km/h (1 Bft)
12.12.2021 23:20 3,0 C 6,1 C 2,9 C 3,5 C 3,5 C 0,5 C 89 % 94 % 1026,1 hPa 0,0 l/m 2,6 km/h (1 Bft) SO 135 0 min 1,4 C 3,5 C 2,9 km/h (1 Bft)
12.12.2021 23:25 2,9 C 6,1 C 2,9 C 3,5 C 3,5 C 0,6 C 89 % 94 % 1026,1 hPa 0,0 l/m 1,8 km/h (1 Bft) SO 135 0 min 1,3 C 3,5 C 4,3 km/h (1 Bft)
12.12.2021 23:30 2,9 C 6,1 C 3,0 C 3,5 C 3,5 C 0,6 C 89 % 94 % 1026,1 hPa 0,0 l/m 1,9 km/h (1 Bft) S-SO 157 0 min 1,3 C 3,5 C 3,2 km/h (1 Bft)
12.12.2021 23:35 3,0 C 6,1 C 3,0 C 3,4 C 3,4 C 0,4 C 89 % 94 % 1026,1 hPa 0,0 l/m 3,1 km/h (1 Bft) S-SO 157 0 min 1,4 C 3,4 C 4,2 km/h (1 Bft)
12.12.2021 23:40 2,9 C 6,1 C 3,0 C 3,2 C 3,2 C 0,3 C 89 % 94 % 1026,1 hPa 0,0 l/m 3,5 km/h (1 Bft) SW 225 0 min 1,3 C 3,2 C 4,7 km/h (1 Bft)
12.12.2021 23:45 3,0 C 6,1 C 3,0 C 3,1 C 3,1 C 0,1 C 89 % 94 % 1026,1 hPa 0,0 l/m 3,7 km/h (1 Bft) S-SW 202 0 min 1,4 C 3,1 C 0,0 km/h (0 Bft)
12.12.2021 23:50 3,0 C 6,1 C 3,0 C 3,4 C 3,4 C 0,4 C 89 % 94 % 1026,1 hPa 0,0 l/m 3,1 km/h (1 Bft) S-SO 157 0 min 1,4 C 3,4 C 3,5 km/h (1 Bft)
12.12.2021 23:55 2,9 C 6,1 C 3,0 C 3,6 C 3,6 C 0,7 C 89 % 94 % 1026,1 hPa 0,0 l/m 2,6 km/h (1 Bft) S 180 0 min 1,3 C 3,6 C 3,2 km/h (1 Bft)
_ Min-Zeit 02:45 07:45 00:55 00:55 02:40 00:00 12:45 13:00 00:00 - 00:00 - - - 02:45 02:40 00:00
Minimum _ -2,7 C 5,1 C -3,3 C -2,8 C -3,4 C 0,0 C 82 % 88 % 1024,1 hPa - 0,0 km/h (0 Bft) - - - -4,3 C -3,4 C 0,0 km/h (0 Bft)
_ Max-Zeit 13:40 22:50 13:35 13:40 13:40 11:25 00:00 00:40 08:30 20:45 13:25 - - 00:00 18:50 13:40 13:15
Maximum _ 4,1 C 6,1 C 3,8 C 5,4 C 5,4 C 1,9 C 89 % 95 % 1026,8 hPa 0,7 l/m 5,8 km/h
S (2 Bft)
- - 0 min 1,8 C 5,4 C 15,8 km/h
O-NO (3 Bft)
Durchschnitt _ 1,6 C 5,3 C 1,1 C 1,7 C 1,4 C 0,2 C 87 % 93 % 1025,7 hPa #0,7 l/m 2,5 km/h (1 Bft) S - #0 min. -0,3 C 1,3 C 3,7 km/h (1 Bft)
2021 www.wetterstation-wechselburg.de